Time;durP1;ratioP1;P1;durP2;ratioP2;P2;SDS_P1;SDS_P2;PMS_P1;PMS_P2;Temp;Humidity;BMP_temperature;BMP_pressure;BME280_temperature;BME280_humidity;BME280_pressure;Samples;Min_cycle;Max_cycle;Signal;HPM_P1;HPM_P2
2021/12/28 00:01:22;;;;;;;3.30;2.67;;;13.70;60.30;;;;;;5032910;28;20057;-70
2021/12/28 00:03:50;;;;;;;3.42;2.60;;;13.90;56.30;;;;;;5032963;28;20084;-70
2021/12/28 00:06:16;;;;;;;2.75;2.40;;;13.40;52.40;;;;;;5031648;28;20049;-70
2021/12/28 00:08:43;;;;;;;3.80;2.50;;;13.60;60.40;;;;;;5032999;28;20124;-70
2021/12/28 00:11:10;;;;;;;3.88;2.70;;;13.20;60.00;;;;;;5031525;28;20056;-70
2021/12/28 00:13:37;;;;;;;3.38;2.67;;;13.60;58.20;;;;;;5031501;28;20140;-70
2021/12/28 00:16:28;;;;;;;3.50;2.97;;;13.60;60.70;;;;;;5031505;28;20132;-70
2021/12/28 00:18:57;;;;;;;3.90;2.60;;;13.30;59.20;;;;;;5036643;28;20053;-70
2021/12/28 00:21:23;;;;;;;3.35;2.55;;;13.50;58.50;;;;;;5051523;28;20131;-70
2021/12/28 00:23:51;;;;;;;3.70;2.88;;;;;;;;;;5052465;28;20059;-70
2021/12/28 00:26:20;;;;;;;4.82;2.50;;;13.90;60.70;;;;;;5050946;28;20505;-70
2021/12/28 00:28:47;;;;;;;2.95;2.50;;;;;;;;;;5051401;28;20080;-70
2021/12/28 00:31:15;;;;;;;3.72;2.70;;;13.30;60.60;;;;;;5050914;28;20045;-70
2021/12/28 00:33:42;;;;;;;3.33;2.63;;;13.20;60.60;;;;;;5042421;28;20136;-70
2021/12/28 00:36:10;;;;;;;3.63;2.40;;;13.40;60.80;;;;;;5031060;28;20092;-70
2021/12/28 00:38:36;;;;;;;3.13;2.65;;;13.30;60.80;;;;;;5032598;28;20132;-70
2021/12/28 00:41:04;;;;;;;2.97;2.33;;;13.60;52.60;;;;;;5031196;28;20079;-70
2021/12/28 00:43:31;;;;;;;3.85;2.70;;;13.60;60.70;;;;;;5032162;28;20622;-70
2021/12/28 00:45:58;;;;;;;3.50;2.63;;;13.40;60.90;;;;;;5032012;28;20088;-70
2021/12/28 00:48:25;;;;;;;2.67;2.35;;;;;;;;;;5042772;28;20124;-70
2021/12/28 00:50:52;;;;;;;3.35;2.70;;;13.30;60.90;;;;;;5049982;28;20057;-70
2021/12/28 00:53:20;;;;;;;3.20;2.50;;;13.30;49.70;;;;;;5051976;28;20053;-69
2021/12/28 00:55:48;;;;;;;3.50;2.58;;;;;;;;;;5050739;28;20056;-69
2021/12/28 00:58:14;;;;;;;3.22;2.53;;;13.20;60.70;;;;;;5050951;28;20135;-70
2021/12/28 01:00:42;;;;;;;3.22;2.60;;;13.20;49.80;;;;;;5050822;28;20140;-70
2021/12/28 01:03:09;;;;;;;3.03;2.50;;;13.10;54.70;;;;;;5037402;28;20132;-70
2021/12/28 01:05:36;;;;;;;3.15;2.45;;;;;;;;;;5030641;28;20148;-69
2021/12/28 01:08:03;;;;;;;3.38;2.88;;;13.20;61.00;;;;;;5030380;28;20060;-70
2021/12/28 01:10:32;;;;;;;2.78;2.50;;;13.20;60.80;;;;;;5031981;28;20243;-70
2021/12/28 01:12:58;;;;;;;3.35;2.45;;;13.10;61.00;;;;;;5031873;28;20052;-70
2021/12/28 01:15:26;;;;;;;3.67;2.53;;;13.00;60.70;;;;;;5031688;28;20049;-70
2021/12/28 01:17:53;;;;;;;2.45;2.20;;;13.40;60.90;;;;;;5045570;28;20139;-70
2021/12/28 01:20:19;;;;;;;3.45;2.75;;;12.90;61.00;;;;;;5050367;28;20061;-70
2021/12/28 01:22:46;;;;;;;2.78;2.22;;;;;;;;;;5050447;28;20048;-69
2021/12/28 01:25:14;;;;;;;3.75;2.70;;;13.20;61.30;;;;;;5049867;28;20127;-70
2021/12/28 01:27:42;;;;;;;3.53;2.60;;;13.00;57.60;;;;;;5050292;28;20502;-70
2021/12/28 01:30:09;;;;;;;3.70;2.33;;;13.30;56.50;;;;;;5050351;28;20136;-70
2021/12/28 01:32:37;;;;;;;3.40;2.47;;;;;;;;;;5032192;28;20432;-69
2021/12/28 01:35:04;;;;;;;3.55;2.70;;;12.90;60.80;;;;;;5030629;28;20079;-70
2021/12/28 01:37:31;;;;;;;4.70;2.65;;;;;;;;;;5030340;28;20136;-69
2021/12/28 01:39:58;;;;;;;2.60;2.30;;;13.20;61.10;;;;;;5030098;28;20059;-70
2021/12/28 01:42:25;;;;;;;3.22;2.58;;;;;;;;;;5031568;28;20550;-70
2021/12/28 01:44:53;;;;;;;3.65;2.60;;;13.10;50.10;;;;;;5031541;28;20057;-70
2021/12/28 01:47:19;;;;;;;2.97;2.38;;;13.20;61.40;;;;;;5049735;28;20474;-70
2021/12/28 01:49:46;;;;;;;2.83;2.30;;;13.10;61.00;;;;;;5050201;28;20052;-70
2021/12/28 01:52:13;;;;;;;2.97;2.30;;;13.20;53.60;;;;;;5049911;28;20053;-70
2021/12/28 01:54:40;;;;;;;3.67;2.50;;;13.30;61.50;;;;;;5050340;28;20132;-70
2021/12/28 01:57:07;;;;;;;2.88;2.40;;;;;;;;;;5051173;28;20059;-70
2021/12/28 01:59:34;;;;;;;3.00;2.38;;;13.30;61.20;;;;;;5049558;28;20155;-70
2021/12/28 02:02:02;;;;;;;2.80;2.50;;;13.10;50.20;;;;;;5052018;28;20071;-70
2021/12/28 02:04:30;;;;;;;2.58;2.30;;;13.10;50.20;;;;;;5054925;28;20160;-70
2021/12/28 02:06:57;;;;;;;4.75;2.50;;;;;;;;;;5053747;28;20478;-70
2021/12/28 02:09:24;;;;;;;3.15;2.58;;;13.00;61.40;;;;;;5053956;28;20106;-70
2021/12/28 02:11:52;;;;;;;3.03;2.22;;;13.00;54.60;;;;;;5053798;28;20059;-70
2021/12/28 02:14:19;;;;;;;2.90;2.30;;;13.00;60.90;;;;;;5050283;28;20517;-70
2021/12/28 02:16:46;;;;;;;3.53;2.65;;;;;;;;;;5033523;28;20085;-70
2021/12/28 02:19:14;;;;;;;3.17;2.50;;;13.30;61.30;;;;;;5033823;28;20050;-70
2021/12/28 02:21:42;;;;;;;2.72;2.42;;;13.10;61.50;;;;;;5033490;28;20417;-70
2021/12/28 02:24:09;;;;;;;3.08;2.58;;;13.00;61.50;;;;;;5034879;28;20118;-70
2021/12/28 02:26:36;;;;;;;3.67;2.85;;;12.80;52.50;;;;;;5033198;28;20504;-70
2021/12/28 02:29:03;;;;;;;3.15;2.80;;;13.00;61.20;;;;;;5041298;28;20464;-71
2021/12/28 02:31:29;;;;;;;2.88;2.40;;;12.50;61.00;;;;;;5054577;28;20051;-71
2021/12/28 02:33:56;;;;;;;3.00;2.45;;;13.00;58.60;;;;;;5054868;28;20075;-70
2021/12/28 02:36:23;;;;;;;4.25;2.60;;;;;;;;;;5053175;28;20159;-70
2021/12/28 02:38:52;;;;;;;2.60;2.30;;;13.00;50.30;;;;;;5054480;28;20045;-69
2021/12/28 02:41:18;;;;;;;2.95;2.20;;;12.90;59.70;;;;;;5053146;28;20140;-70
2021/12/28 02:43:48;;;;;;;3.80;2.50;;;13.00;61.70;;;;;;5051696;28;20123;-70
2021/12/28 02:46:15;;;;;;;2.50;2.30;;;12.90;54.10;;;;;;5054272;28;20053;-70
2021/12/28 02:48:42;;;;;;;3.15;2.22;;;13.00;61.40;;;;;;5052992;28;20102;-70
2021/12/28 02:51:10;;;;;;;3.00;2.33;;;12.90;61.60;;;;;;5052810;28;20063;-70
2021/12/28 02:53:37;;;;;;;3.63;2.50;;;13.10;61.40;;;;;;5054122;28;20045;-70
2021/12/28 02:56:05;;;;;;;3.38;2.40;;;13.10;61.40;;;;;;5052674;28;20053;-70
2021/12/28 02:58:33;;;;;;;3.13;2.50;;;13.10;61.40;;;;;;5041871;28;20133;-70
2021/12/28 03:01:03;;;;;;;3.47;2.63;;;12.60;61.10;;;;;;5035496;28;20073;-70
2021/12/28 03:03:30;;;;;;;2.60;2.25;;;12.90;61.50;;;;;;5033139;28;20088;-70
2021/12/28 03:05:58;;;;;;;2.65;2.30;;;13.20;61.50;;;;;;5032403;28;20475;-70
2021/12/28 03:08:26;;;;;;;2.85;2.40;;;13.20;57.20;;;;;;5033892;28;20136;-70
2021/12/28 03:10:53;;;;;;;2.63;2.40;;;;;;;;;;5034093;28;20413;-69
2021/12/28 03:13:22;;;;;;;3.03;2.45;;;12.90;61.20;;;;;;5046722;28;20076;-70
2021/12/28 03:15:49;;;;;;;2.47;2.25;;;;;;;;;;5052499;28;20091;-69
2021/12/28 03:18:16;;;;;;;3.13;2.42;;;13.10;61.50;;;;;;5053544;28;20055;-70
2021/12/28 03:20:43;;;;;;;2.85;2.45;;;;;;;;;;5052247;28;20059;-70
2021/12/28 03:23:10;;;;;;;4.22;2.72;;;;;;;;;;5053854;28;20048;-70
2021/12/28 03:25:37;;;;;;;2.85;2.38;;;;;;;;;;5052338;28;20059;-69
2021/12/28 03:28:04;;;;;;;2.35;2.10;;;13.00;61.00;;;;;;5034855;28;20053;-70
2021/12/28 03:30:32;;;;;;;3.15;2.67;;;13.10;50.30;;;;;;5032346;28;20148;-71
2021/12/28 03:33:00;;;;;;;3.10;2.60;;;;;;;;;;5032368;28;20084;-72
2021/12/28 03:35:26;;;;;;;2.95;2.33;;;13.10;58.40;;;;;;5041290;28;20147;-71
2021/12/28 03:37:53;;;;;;;4.28;2.70;;;13.20;61.20;;;;;;5052386;28;20414;-71
2021/12/28 03:40:20;;;;;;;2.78;2.30;;;;;;;;;;5051864;28;20136;-71
2021/12/28 03:42:47;;;;;;;2.85;2.30;;;13.10;61.40;;;;;;5032501;28;20053;-71
2021/12/28 03:45:14;;;;;;;3.40;2.45;;;;;;;;;;5032334;28;20139;-71
2021/12/28 03:47:42;;;;;;;3.30;2.65;;;13.20;52.00;;;;;;5031856;28;20137;-71
2021/12/28 03:50:10;;;;;;;4.05;2.70;;;12.90;61.30;;;;;;5033054;28;20478;-71
2021/12/28 03:52:37;;;;;;;2.80;2.38;;;13.20;61.20;;;;;;5032047;28;20071;-71
2021/12/28 03:55:04;;;;;;;3.08;2.30;;;;;;;;;;5034087;28;20064;-70
2021/12/28 03:57:31;;;;;;;3.10;2.50;;;13.10;61.40;;;;;;5052859;28;20081;-71
2021/12/28 03:59:58;;;;;;;3.70;2.45;;;;;;;;;;5052876;28;20128;-70
2021/12/28 04:02:25;;;;;;;3.08;2.47;;;13.40;56.50;;;;;;5052858;28;20137;-71
2021/12/28 04:04:53;;;;;;;2.97;2.28;;;13.20;61.10;;;;;;5051802;28;20063;-71
2021/12/28 04:07:21;;;;;;;3.08;2.40;;;13.30;61.30;;;;;;5051611;28;20059;-71
2021/12/28 04:10:00;;;;;;;2.97;2.55;;;12.90;60.80;;;;;;5046940;28;20487;-71
2021/12/28 04:12:27;;;;;;;3.17;2.33;;;13.40;61.10;;;;;;5032589;28;20081;-71
2021/12/28 04:14:54;;;;;;;3.25;2.53;;;14.10;61.20;;;;;;5031721;28;20566;-71
2021/12/28 04:17:21;;;;;;;3.42;2.75;;;;;;;;;;5031487;28;20144;-71
2021/12/28 04:19:48;;;;;;;2.97;2.60;;;13.20;61.20;;;;;;5031547;28;20081;-71
2021/12/28 04:22:16;;;;;;;3.33;2.60;;;13.00;51.60;;;;;;5031428;28;20061;-71
2021/12/28 04:24:43;;;;;;;3.17;2.53;;;;;;;;;;5039680;28;20140;-71
2021/12/28 04:27:10;;;;;;;2.80;2.42;;;12.70;60.50;;;;;;5051227;28;20132;-71
2021/12/28 04:29:37;;;;;;;2.70;2.20;;;;;;;;;;5051318;28;20530;-70
2021/12/28 04:32:04;;;;;;;3.00;2.38;;;13.20;60.70;;;;;;5051325;28;20139;-71
2021/12/28 04:34:31;;;;;;;2.83;2.53;;;13.10;56.00;;;;;;5050797;28;20048;-71
2021/12/28 04:36:58;;;;;;;3.15;2.70;;;13.40;61.00;;;;;;5051050;28;20489;-71
2021/12/28 04:39:26;;;;;;;3.13;2.40;;;13.50;60.80;;;;;;5040304;28;20152;-71
2021/12/28 04:41:53;;;;;;;3.97;2.83;;;13.80;61.20;;;;;;5031240;28;20132;-71
2021/12/28 04:44:24;;;;;;;2.78;2.20;;;13.00;56.30;;;;;;5031054;28;20055;-71
2021/12/28 04:46:51;;;;;;;2.85;2.40;;;13.60;60.90;;;;;;5031097;28;20089;-70
2021/12/28 04:49:20;;;;;;;4.55;2.88;;;13.50;60.70;;;;;;5030946;28;20049;-70
2021/12/28 04:51:47;;;;;;;3.05;2.60;;;13.60;61.10;;;;;;5031997;28;20045;-70
2021/12/28 04:54:15;;;;;;;3.40;2.60;;;13.60;61.10;;;;;;5044783;28;20048;-70
2021/12/28 04:56:43;;;;;;;3.17;2.60;;;13.50;57.50;;;;;;5050415;28;20056;-70
2021/12/28 04:59:10;;;;;;;3.30;2.60;;;;;;;;;;5050703;28;20085;-70
2021/12/28 05:01:37;;;;;;;3.03;2.50;;;13.40;61.00;;;;;;5050762;28;20136;-70
2021/12/28 05:04:05;;;;;;;3.35;2.80;;;13.50;60.50;;;;;;5050867;28;20131;-70
2021/12/28 05:06:31;;;;;;;4.03;2.92;;;13.60;57.10;;;;;;5050633;28;20569;-70
2021/12/28 05:08:58;;;;;;;3.03;2.47;;;;;;;;;;5034003;28;20140;-70
2021/12/28 05:11:25;;;;;;;2.80;2.33;;;13.40;60.50;;;;;;5030866;28;20055;-70
2021/12/28 05:13:53;;;;;;;3.22;2.75;;;13.60;50.10;;;;;;5030638;28;20049;-70
2021/12/28 05:16:21;;;;;;;2.97;2.40;;;;;;;;;;5030628;28;20477;-70
2021/12/28 05:18:47;;;;;;;3.17;2.60;;;13.80;61.00;;;;;;5030796;28;20136;-70
2021/12/28 05:21:14;;;;;;;2.88;2.30;;;;;;;;;;5030538;28;20168;-71
2021/12/28 05:23:41;;;;;;;3.60;2.67;;;13.70;60.60;;;;;;5030695;28;20049;-70
2021/12/28 05:26:08;;;;;;;3.03;2.55;;;13.60;60.60;;;;;;5048591;28;20180;-70
2021/12/28 05:28:35;;;;;;;4.22;2.67;;;;;;;;;;5050617;28;20064;-70
2021/12/28 05:31:03;;;;;;;2.90;2.60;;;13.60;60.50;;;;;;5050464;28;20470;-70
2021/12/28 05:33:30;;;;;;;3.55;2.55;;;13.80;60.90;;;;;;5050363;28;20473;-70
2021/12/28 05:35:57;;;;;;;2.63;2.30;;;;;;;;;;5050058;28;20147;-70
2021/12/28 05:38:23;;;;;;;3.17;2.63;;;13.50;60.70;;;;;;5054577;28;20063;-70
2021/12/28 05:40:50;;;;;;;2.92;2.60;;;13.70;60.50;;;;;;5053429;28;20131;-70
2021/12/28 05:43:17;;;;;;;3.10;2.50;;;;;;;;;;5034564;28;20508;-71
2021/12/28 05:45:44;;;;;;;2.70;2.42;;;13.30;60.60;;;;;;5034097;28;20160;-71
2021/12/28 05:48:12;;;;;;;3.13;2.53;;;13.80;50.20;;;;;;5034478;28;20046;-71
2021/12/28 05:50:39;;;;;;;3.88;3.13;;;;;;;;;;5033989;28;20060;-70
2021/12/28 05:53:06;;;;;;;2.92;2.53;;;13.70;60.80;;;;;;5034200;28;20041;-70
2021/12/28 05:55:33;;;;;;;3.35;2.70;;;13.70;60.50;;;;;;5035477;28;20136;-70
2021/12/28 05:57:59;;;;;;;3.03;2.70;;;13.70;57.10;;;;;;5035471;28;20136;-70
2021/12/28 06:00:28;;;;;;;4.20;2.60;;;14.20;61.00;;;;;;5033694;28;20057;-70
2021/12/28 06:02:55;;;;;;;3.13;2.70;;;13.90;60.90;;;;;;5034194;28;20053;-70
2021/12/28 06:05:23;;;;;;;2.90;2.25;;;13.70;50.70;;;;;;5033860;28;20132;-70
2021/12/28 06:07:50;;;;;;;3.00;2.40;;;13.90;57.50;;;;;;5034127;28;20132;-70
2021/12/28 06:10:16;;;;;;;3.67;2.90;;;13.90;60.70;;;;;;5033820;28;20093;-70
2021/12/28 06:12:43;;;;;;;3.50;2.60;;;13.70;60.90;;;;;;5034032;28;20107;-70
2021/12/28 06:15:10;;;;;;;3.67;2.67;;;13.80;56.40;;;;;;5035025;28;20060;-71
2021/12/28 06:17:37;;;;;;;3.22;2.70;;;13.80;60.70;;;;;;5034831;28;20135;-70
2021/12/28 06:20:04;;;;;;;3.35;2.42;;;;;;;;;;5033822;28;20148;-71
2021/12/28 06:22:32;;;;;;;2.75;2.55;;;13.20;60.70;;;;;;5033640;28;20104;-70
2021/12/28 06:24:59;;;;;;;3.25;2.70;;;13.80;61.00;;;;;;5033598;28;20132;-70
2021/12/28 06:27:25;;;;;;;3.33;2.47;;;14.00;60.80;;;;;;5033556;28;20132;-70
2021/12/28 06:29:52;;;;;;;3.28;2.67;;;13.80;55.80;;;;;;5033640;28;20128;-70
2021/12/28 06:32:19;;;;;;;2.88;2.45;;;13.70;54.00;;;;;;5042566;28;20140;-70
2021/12/28 06:34:46;;;;;;;2.33;2.10;;;13.80;60.90;;;;;;5053273;28;20059;-70
2021/12/28 06:37:12;;;;;;;2.80;2.40;;;14.00;55.10;;;;;;5053112;28;20565;-70
2021/12/28 06:39:40;;;;;;;2.92;2.60;;;13.70;60.50;;;;;;5054493;28;20088;-70
2021/12/28 06:42:07;;;;;;;2.95;2.55;;;13.90;60.70;;;;;;5053462;28;20132;-71
2021/12/28 06:44:34;;;;;;;2.60;2.35;;;;;;;;;;5053377;28;20053;-70
2021/12/28 06:47:02;;;;;;;3.05;2.70;;;13.90;60.70;;;;;;5053105;28;20140;-70
2021/12/28 06:49:29;;;;;;;3.00;2.38;;;;;;;;;;5050053;28;20080;-70
2021/12/28 06:51:55;;;;;;;2.70;2.40;;;13.90;60.70;;;;;;5053302;28;20144;-70
2021/12/28 06:54:22;;;;;;;4.05;2.50;;;13.90;60.70;;;;;;5053021;28;20131;-70
2021/12/28 06:56:50;;;;;;;2.83;2.25;;;13.20;54.80;;;;;;5052919;28;20466;-70
2021/12/28 06:59:17;;;;;;;2.85;2.40;;;13.90;60.60;;;;;;5052817;28;20082;-70
2021/12/28 07:01:44;;;;;;;3.03;2.42;;;13.90;60.90;;;;;;5052641;28;20063;-70
2021/12/28 07:04:11;;;;;;;2.80;2.42;;;;;;;;;;5053110;28;20063;-71
2021/12/28 07:06:38;;;;;;;2.30;2.00;;;13.80;60.80;;;;;;5039563;28;20554;-67
2021/12/28 07:09:04;;;;;;;2.40;2.03;;;14.00;61.00;;;;;;5033984;28;20050;-67
2021/12/28 07:11:31;;;;;;;3.08;2.25;;;14.20;56.10;;;;;;5034112;28;20080;-67
2021/12/28 07:13:59;;;;;;;2.38;2.05;;;14.00;60.90;;;;;;5033997;28;20049;-67
2021/12/28 07:16:26;;;;;;;2.20;2.00;;;14.70;61.30;;;;;;5033892;28;20141;-67
2021/12/28 07:18:53;;;;;;;2.10;1.90;;;;;;;;;;5044304;28;20119;-67
2021/12/28 07:21:20;;;;;;;2.85;2.08;;;14.60;60.70;;;;;;5052178;28;20052;-67
2021/12/28 07:23:46;;;;;;;2.80;2.10;;;14.00;61.00;;;;;;5053240;28;20057;-67
2021/12/28 07:26:13;;;;;;;2.40;2.03;;;;;;;;;;5052033;28;20055;-67
2021/12/28 07:28:40;;;;;;;3.33;2.00;;;13.90;60.90;;;;;;5052144;28;20132;-67
2021/12/28 07:31:08;;;;;;;2.10;1.75;;;13.90;60.60;;;;;;5051958;28;20553;-67
2021/12/28 07:33:35;;;;;;;2.75;2.00;;;13.80;60.80;;;;;;5052072;28;20056;-67
2021/12/28 07:36:02;;;;;;;2.22;1.75;;;;;;;;;;5052927;28;20124;-67
2021/12/28 07:38:29;;;;;;;3.70;2.08;;;13.80;60.60;;;;;;5053312;28;20055;-67
2021/12/28 07:40:56;;;;;;;2.75;2.15;;;;;;;;;;5052386;28;20136;-67
2021/12/28 07:43:22;;;;;;;2.10;1.80;;;13.40;60.60;;;;;;5053120;28;20124;-67
2021/12/28 07:45:51;;;;;;;2.38;2.00;;;;;;;;;;5052262;28;20047;-67
2021/12/28 07:48:19;;;;;;;2.45;1.80;;;13.80;50.30;;;;;;5051694;28;20049;-67
2021/12/28 07:50:46;;;;;;;2.83;2.00;;;;;;;;;;5052683;28;20048;-67
2021/12/28 07:53:13;;;;;;;2.63;1.98;;;13.90;60.90;;;;;;5049044;28;20056;-67
2021/12/28 07:55:40;;;;;;;2.80;2.10;;;;;;;;;;5052546;28;20116;-67
2021/12/28 07:58:07;;;;;;;2.45;1.92;;;14.10;60.50;;;;;;5052439;28;20049;-67
2021/12/28 08:00:33;;;;;;;2.38;1.77;;;13.90;60.70;;;;;;5051681;28;20139;-67
2021/12/28 08:03:03;;;;;;;2.10;1.88;;;;;;;;;;5053042;28;20041;-68
2021/12/28 08:05:31;;;;;;;1.80;1.55;;;13.80;50.40;;;;;;5051534;28;20045;-67
2021/12/28 08:07:59;;;;;;;2.08;1.65;;;;;;;;;;5052734;28;20387;-70
2021/12/28 08:10:26;;;;;;;1.90;1.60;;;13.90;60.90;;;;;;5051500;28;20139;-69
2021/12/28 08:12:54;;;;;;;2.88;1.90;;;;;;;;;;5049760;28;20241;-69
2021/12/28 08:15:21;;;;;;;4.45;1.77;;;13.40;50.70;;;;;;5032702;28;20045;-69
2021/12/28 08:17:47;;;;;;;3.25;1.70;;;14.00;61.10;;;;;;5040676;28;20049;-69
2021/12/28 08:20:15;;;;;;;4.20;1.73;;;14.00;60.90;;;;;;5052676;28;20048;-69
2021/12/28 08:22:43;;;;;;;6.80;1.50;;;13.70;60.90;;;;;;5050979;28;20048;-69
2021/12/28 08:25:11;;;;;;;4.00;2.00;;;14.00;60.80;;;;;;5031471;28;20128;-69
2021/12/28 08:27:37;;;;;;;2.33;1.50;;;14.00;58.70;;;;;;5031116;28;20237;-69
2021/12/28 08:30:05;;;;;;;3.15;1.73;;;13.50;60.70;;;;;;5033715;28;20132;-69
2021/12/28 08:32:32;;;;;;;3.17;1.67;;;14.10;61.00;;;;;;5031529;28;20049;-69
2021/12/28 08:34:59;;;;;;;2.88;1.77;;;14.00;60.70;;;;;;5031395;28;20486;-69
2021/12/28 08:37:26;;;;;;;5.63;1.67;;;14.40;55.40;;;;;;5032006;28;20518;-70
2021/12/28 08:39:55;;;;;;;6.70;1.80;;;15.70;51.40;;;;;;5032528;28;20087;-69
2021/12/28 08:42:22;;;;;;;5.32;1.85;;;14.30;54.70;;;;;;5032545;28;20055;-69
2021/12/28 08:44:49;;;;;;;2.20;1.50;;;14.20;60.80;;;;;;5039416;28;20045;-70
2021/12/28 08:47:16;;;;;;;4.40;1.90;;;;;;;;;;5049135;28;20059;-70
2021/12/28 08:49:42;;;;;;;2.78;1.77;;;14.10;60.90;;;;;;5050121;28;20049;-69
2021/12/28 08:52:09;;;;;;;1.92;1.45;;;15.00;61.10;;;;;;5050041;28;20135;-70
2021/12/28 08:54:36;;;;;;;2.47;1.58;;;15.00;57.80;;;;;;5049360;28;20044;-69
2021/12/28 08:57:04;;;;;;;2.70;1.40;;;14.20;60.70;;;;;;5050353;28;20044;-70
2021/12/28 08:59:31;;;;;;;2.45;1.60;;;;;;;;;;5064317;28;20136;-70
2021/12/28 09:02:00;;;;;;;2.38;1.48;;;14.30;59.60;;;;;;5050593;28;20055;-70
2021/12/28 09:04:27;;;;;;;3.03;1.40;;;14.20;60.80;;;;;;5051179;28;20045;-70
2021/12/28 09:06:53;;;;;;;2.35;1.48;;;13.60;60.50;;;;;;5050141;28;20137;-70
2021/12/28 09:09:20;;;;;;;2.03;1.40;;;14.40;52.20;;;;;;5050408;28;20055;-70
2021/12/28 09:11:47;;;;;;;2.42;1.35;;;14.30;60.80;;;;;;5049343;28;20053;-70
2021/12/28 09:14:15;;;;;;;3.40;1.67;;;14.40;60.90;;;;;;5064371;28;20053;-70
2021/12/28 09:16:41;;;;;;;2.25;1.48;;;13.70;60.20;;;;;;5050579;28;20139;-70
2021/12/28 09:19:09;;;;;;;3.30;1.38;;;;;;;;;;5050712;28;20140;-69
2021/12/28 09:21:35;;;;;;;1.65;1.30;;;14.40;60.90;;;;;;5050774;28;20246;-70
2021/12/28 09:24:02;;;;;;;3.20;1.38;;;14.40;60.60;;;;;;5032967;28;20136;-70
2021/12/28 09:26:29;;;;;;;2.00;1.50;;;13.90;56.00;;;;;;5031418;28;20137;-70
2021/12/28 09:28:55;;;;;;;2.53;1.52;;;14.30;60.60;;;;;;5031913;28;20532;-70
2021/12/28 09:31:23;;;;;;;2.53;1.30;;;14.50;60.90;;;;;;5031765;28;20132;-72
2021/12/28 09:33:50;;;;;;;2.30;1.42;;;14.30;60.70;;;;;;5041555;28;20124;-71
2021/12/28 09:36:18;;;;;;;5.70;1.40;;;13.50;54.60;;;;;;5051477;28;20056;-70
2021/12/28 09:38:45;;;;;;;2.28;1.38;;;;;;;;;;5050278;28;20059;-70
2021/12/28 09:41:12;;;;;;;1.42;1.08;;;14.60;61.20;;;;;;5031576;28;20057;-70
2021/12/28 09:43:39;;;;;;;2.33;1.17;;;14.70;61.20;;;;;;5030693;28;20132;-71
2021/12/28 09:46:05;;;;;;;2.03;1.27;;;14.70;60.50;;;;;;5030029;28;20144;-71
2021/12/28 09:48:33;;;;;;;2.00;1.30;;;14.60;61.20;;;;;;5031616;28;20136;-70
2021/12/28 09:51:00;;;;;;;2.58;1.40;;;14.60;60.80;;;;;;5031550;28;20056;-70
2021/12/28 09:53:27;;;;;;;2.90;1.33;;;;;;;;;;5030519;28;20064;-68
2021/12/28 09:55:54;;;;;;;2.97;1.40;;;15.30;61.50;;;;;;5032363;28;20060;-70
2021/12/28 09:58:21;;;;;;;2.30;1.40;;;14.60;60.80;;;;;;5030536;28;20136;-71
2021/12/28 10:00:48;;;;;;;1.88;1.40;;;14.50;52.40;;;;;;5030126;28;20060;-71
2021/12/28 10:03:14;;;;;;;3.65;1.30;;;14.60;61.00;;;;;;5046737;28;20131;-71
2021/12/28 10:05:43;;;;;;;2.05;1.30;;;14.60;50.60;;;;;;5050161;28;20136;-72
2021/12/28 10:08:10;;;;;;;2.35;1.40;;;;;;;;;;5049799;28;20132;-71
2021/12/28 10:10:38;;;;;;;1.73;1.15;;;14.60;50.60;;;;;;5049447;28;20140;-72
2021/12/28 10:13:07;;;;;;;2.75;1.38;;;14.80;60.80;;;;;;5049159;28;20041;-72
2021/12/28 10:15:36;;;;;;;2.22;1.40;;;14.70;57.60;;;;;;5046383;28;20482;-72
2021/12/28 10:18:04;;;;;;;1.85;1.20;;;13.70;60.40;;;;;;5049378;28;20132;-70
2021/12/28 10:20:32;;;;;;;2.33;1.48;;;13.90;60.30;;;;;;5050902;28;20123;-70
2021/12/28 10:23:02;;;;;;;2.17;1.30;;;15.20;60.90;;;;;;5051493;28;20124;-70
2021/12/28 10:25:30;;;;;;;4.43;1.50;;;14.70;50.50;;;;;;5052862;28;20049;-70
2021/12/28 10:27:58;;;;;;;3.53;1.20;;;14.70;57.30;;;;;;5052033;28;20128;-70
2021/12/28 10:30:26;;;;;;;3.33;1.50;;;13.80;60.40;;;;;;5051283;28;20128;-71
2021/12/28 10:32:53;;;;;;;2.90;1.52;;;14.70;50.50;;;;;;5046488;28;20048;-70
2021/12/28 10:35:23;;;;;;;2.40;1.38;;;14.70;50.50;;;;;;5050464;28;20056;-71
2021/12/28 10:37:50;;;;;;;2.47;1.35;;;14.80;60.90;;;;;;5052492;28;20135;-70
2021/12/28 10:40:24;;;;;;;2.38;1.30;;;14.00;60.20;;;;;;5052703;28;20135;-70
2021/12/28 10:42:53;;;;;;;3.75;1.40;;;14.80;54.20;;;;;;5059576;28;20124;-70
2021/12/28 10:45:22;;;;;;;3.13;1.40;;;14.80;50.70;;;;;;5060846;28;20049;-69
2021/12/28 10:47:50;;;;;;;3.22;1.20;;;;;;;;;;5054134;28;20485;-71
2021/12/28 10:50:29;;;;;;;2.72;1.30;;;14.80;50.70;;;;;;5052271;28;20136;-69
2021/12/28 10:53:12;;;;;;;2.25;1.20;;;14.90;60.80;;;;;;5053358;28;20053;-69
2021/12/28 10:55:42;;;;;;;3.00;1.40;;;14.90;60.10;;;;;;5052624;28;20049;-69
2021/12/28 10:58:11;;;;;;;3.85;1.30;;;;;;;;;;5054477;28;20460;-70
2021/12/28 11:00:41;;;;;;;3.15;1.33;;;14.60;60.80;;;;;;5049283;28;20057;-69
2021/12/28 11:03:31;;;;;;;2.92;1.50;;;14.80;61.00;;;;;;5044077;28;20067;-69
2021/12/28 11:05:59;;;;;;;2.58;1.52;;;14.90;61.00;;;;;;5053238;28;20501;-70
2021/12/28 11:08:27;;;;;;;2.65;1.50;;;14.90;60.90;;;;;;5049136;28;20053;-69
2021/12/28 11:10:57;;;;;;;3.10;1.50;;;15.80;60.00;;;;;;5050091;28;20132;-69
2021/12/28 11:13:25;;;;;;;2.20;1.33;;;15.70;59.80;;;;;;5060714;28;20127;-69
2021/12/28 11:15:52;;;;;;;3.25;1.50;;;;;;;;;;5066802;28;20137;-71
2021/12/28 11:18:25;;;;;;;3.72;1.50;;;14.80;60.90;;;;;;5072779;28;20127;-70
2021/12/28 11:20:53;;;;;;;2.97;1.40;;;14.40;56.30;;;;;;5054505;28;20060;-70
2021/12/28 11:23:20;;;;;;;2.53;1.33;;;14.80;50.90;;;;;;5032581;28;20136;-70
2021/12/28 11:25:47;;;;;;;1.60;1.20;;;;;;;;;;5033309;28;20623;-71
2021/12/28 11:28:17;;;;;;;3.70;1.40;;;14.90;61.20;;;;;;5052667;28;20048;-71
2021/12/28 11:31:06;;;;;;;2.22;1.40;;;14.60;60.90;;;;;;5051833;28;20057;-71
2021/12/28 11:34:00;;;;;;;2.90;1.33;;;15.40;61.40;;;;;;5050789;28;20148;-71
2021/12/28 11:36:28;;;;;;;5.43;1.58;;;15.70;61.60;;;;;;5049321;28;20144;-71
2021/12/28 11:38:55;;;;;;;4.68;1.50;;;14.90;61.30;;;;;;5049276;28;20106;-71
2021/12/28 11:41:22;;;;;;;3.50;1.60;;;15.50;52.60;;;;;;5051790;28;20049;-71
2021/12/28 11:43:50;;;;;;;2.25;1.30;;;14.80;61.50;;;;;;5051828;28;20391;-70
2021/12/28 11:46:17;;;;;;;3.38;1.75;;;14.80;61.50;;;;;;5048787;28;20131;-71
2021/12/28 11:48:45;;;;;;;4.47;1.40;;;;;;;;;;5052957;28;20119;-70
2021/12/28 11:51:12;;;;;;;2.70;1.48;;;;;;;;;;5051497;28;20052;-70
2021/12/28 11:53:46;;;;;;;3.45;1.48;;;14.70;61.40;;;;;;5049272;28;20631;-70
2021/12/28 11:56:14;;;;;;;3.33;1.48;;;14.50;61.30;;;;;;5033887;28;20048;-69
2021/12/28 11:58:53;;;;;;;2.53;1.58;;;14.30;52.10;;;;;;5050703;28;20135;-70
2021/12/28 12:01:43;;;;;;;2.38;1.50;;;14.60;51.60;;;;;;5050705;28;20049;-71
2021/12/28 12:04:57;;;;;;;3.92;1.60;;;13.80;61.00;;;;;;5050911;28;20131;-70
2021/12/28 12:07:37;;;;;;;4.60;1.50;;;14.70;61.60;;;;;;5049166;28;20049;-70
2021/12/28 12:10:27;;;;;;;3.45;1.35;;;14.10;61.20;;;;;;5049308;28;20069;-71
2021/12/28 12:12:56;;;;;;;3.95;1.35;;;14.50;51.80;;;;;;5055802;28;20131;-71
2021/12/28 12:15:25;;;;;;;3.75;1.45;;;14.40;52.40;;;;;;5036342;28;20056;-70
2021/12/28 12:17:52;;;;;;;2.47;1.30;;;;;;;;;;5049031;28;20083;-70
2021/12/28 12:20:30;;;;;;;4.93;1.63;;;14.40;51.70;;;;;;5043170;28;20053;-70
2021/12/28 12:23:08;;;;;;;2.65;1.40;;;13.70;61.20;;;;;;5047087;28;20103;-74
2021/12/28 12:25:57;;;;;;;2.63;1.27;;;14.50;61.90;;;;;;5051323;28;20049;-70
2021/12/28 12:28:32;;;;;;;3.28;1.50;;;15.10;62.40;;;;;;5051591;28;20045;-71
2021/12/28 12:31:00;;;;;;;6.60;1.63;;;13.90;61.70;;;;;;5035008;28;20132;-71
2021/12/28 12:33:34;;;;;;;5.40;1.60;;;14.40;52.40;;;;;;5039062;28;20055;-69
2021/12/28 12:36:01;;;;;;;2.38;1.30;;;14.50;62.50;;;;;;5031204;28;20124;-69
2021/12/28 12:38:36;;;;;;;2.72;1.50;;;14.40;52.50;;;;;;5032640;28;20135;-70
2021/12/28 12:41:05;;;;;;;;;;;14.40;52.90;;;;;;5050735;28;20057;-70
2021/12/28 12:43:42;;;;;;;3.17;1.38;;;14.30;52.50;;;;;;5048991;28;19932;-70
2021/12/28 12:46:11;;;;;;;2.58;1.30;;;14.00;62.10;;;;;;5048947;28;20496;-70
2021/12/28 12:49:24;;;;;;;2.47;1.45;;;13.60;55.00;;;;;;5052426;28;20131;-68
2021/12/28 12:51:54;;;;;;;3.25;1.55;;;14.20;62.40;;;;;;5015702;28;20060;-69
2021/12/28 12:54:25;;;;;;;4.88;1.63;;;13.60;61.90;;;;;;5051617;28;20118;-69
2021/12/28 12:57:10;;;;;;;3.75;1.20;;;14.40;52.80;;;;;;5048271;28;20048;-70
2021/12/28 12:59:43;;;;;;;3.45;1.52;;;14.30;55.20;;;;;;5048684;28;20048;-70
2021/12/28 13:02:13;;;;;;;3.25;1.30;;;14.40;60.70;;;;;;5051052;28;20128;-70
2021/12/28 13:04:42;;;;;;;4.03;1.40;;;14.40;52.90;;;;;;5051188;28;20053;-70
2021/12/28 13:07:11;;;;;;;3.35;1.20;;;14.00;62.60;;;;;;5050859;28;20135;-71
2021/12/28 13:09:39;;;;;;;2.38;1.30;;;13.80;62.20;;;;;;5051825;28;20088;-71
2021/12/28 13:12:06;;;;;;;2.58;1.45;;;13.90;62.30;;;;;;5051992;28;20117;-71
2021/12/28 13:14:33;;;;;;;3.08;1.38;;;14.50;59.30;;;;;;5049212;28;20087;-70